sensor_id;sensor_type;location;lat;lon;timestamp;temperature;humidity
52203;DHT22;38173;52.850;6.970;2022-11-21T00:00:18;0.40;99.90
52203;DHT22;38173;52.850;6.970;2022-11-21T00:02:43;0.40;99.90
52203;DHT22;38173;52.850;6.970;2022-11-21T00:05:09;0.40;99.90
52203;DHT22;38173;52.850;6.970;2022-11-21T00:07:36;0.40;99.90
52203;DHT22;38173;52.850;6.970;2022-11-21T00:10:03;0.40;99.90
52203;DHT22;38173;52.850;6.970;2022-11-21T00:12:29;0.40;99.90
52203;DHT22;38173;52.850;6.970;2022-11-21T00:14:56;0.30;99.90
52203;DHT22;38173;52.850;6.970;2022-11-21T00:17:22;0.40;99.90
52203;DHT22;38173;52.850;6.970;2022-11-21T00:19:47;0.30;99.90
52203;DHT22;38173;52.850;6.970;2022-11-21T00:22:13;0.30;99.90
52203;DHT22;38173;52.850;6.970;2022-11-21T00:24:39;0.30;99.90
52203;DHT22;38173;52.850;6.970;2022-11-21T00:27:04;0.30;99.90
52203;DHT22;38173;52.850;6.970;2022-11-21T00:29:30;0.30;99.90
52203;DHT22;38173;52.850;6.970;2022-11-21T00:31:56;0.40;99.90
52203;DHT22;38173;52.850;6.970;2022-11-21T00:34:22;0.30;99.90
52203;DHT22;38173;52.850;6.970;2022-11-21T00:36:48;0.30;99.90
52203;DHT22;38173;52.850;6.970;2022-11-21T00:39:13;0.30;99.90
52203;DHT22;38173;52.850;6.970;2022-11-21T00:41:39;0.30;99.90
52203;DHT22;38173;52.850;6.970;2022-11-21T00:44:04;0.30;99.90
52203;DHT22;38173;52.850;6.970;2022-11-21T00:46:30;0.30;99.90
52203;DHT22;38173;52.850;6.970;2022-11-21T00:48:56;0.30;99.90
52203;DHT22;38173;52.850;6.970;2022-11-21T00:51:21;0.30;99.90
52203;DHT22;38173;52.850;6.970;2022-11-21T00:53:47;0.30;99.90
52203;DHT22;38173;52.850;6.970;2022-11-21T00:56:13;0.20;99.90
52203;DHT22;38173;52.850;6.970;2022-11-21T00:58:39;0.30;99.90
52203;DHT22;38173;52.850;6.970;2022-11-21T01:01:06;0.20;99.90
52203;DHT22;38173;52.850;6.970;2022-11-21T01:03:33;0.20;99.90
52203;DHT22;38173;52.850;6.970;2022-11-21T01:06:00;0.20;99.90
52203;DHT22;38173;52.850;6.970;2022-11-21T01:08:25;0.20;99.90
52203;DHT22;38173;52.850;6.970;2022-11-21T01:10:51;0.20;99.90
52203;DHT22;38173;52.850;6.970;2022-11-21T01:13:16;0.20;99.90
52203;DHT22;38173;52.850;6.970;2022-11-21T01:15:42;0.20;99.90
52203;DHT22;38173;52.850;6.970;2022-11-21T01:18:07;0.10;99.90
52203;DHT22;38173;52.850;6.970;2022-11-21T01:20:37;0.10;99.90
52203;DHT22;38173;52.850;6.970;2022-11-21T01:23:03;0.10;99.90
52203;DHT22;38173;52.850;6.970;2022-11-21T01:25:28;0.10;99.90
52203;DHT22;38173;52.850;6.970;2022-11-21T01:27:54;0.00;99.90
52203;DHT22;38173;52.850;6.970;2022-11-21T01:30:19;0.00;99.90
52203;DHT22;38173;52.850;6.970;2022-11-21T01:32:48;0.00;99.90
52203;DHT22;38173;52.850;6.970;2022-11-21T01:35:14;-0.10;99.90
52203;DHT22;38173;52.850;6.970;2022-11-21T01:37:40;-0.10;99.90
52203;DHT22;38173;52.850;6.970;2022-11-21T01:40:06;-0.10;99.90
52203;DHT22;38173;52.850;6.970;2022-11-21T01:45:51;-0.10;99.90
52203;DHT22;38173;52.850;6.970;2022-11-21T01:48:08;-0.10;99.90
52203;DHT22;38173;52.850;6.970;2022-11-21T01:50:33;-0.10;99.90
52203;DHT22;38173;52.850;6.970;2022-11-21T01:52:59;-0.10;99.90
52203;DHT22;38173;52.850;6.970;2022-11-21T01:55:25;-0.20;99.90
52203;DHT22;38173;52.850;6.970;2022-11-21T01:57:50;-0.20;99.90
52203;DHT22;38173;52.850;6.970;2022-11-21T02:00:21;-0.20;99.90
52203;DHT22;38173;52.850;6.970;2022-11-21T02:02:49;-0.20;99.90
52203;DHT22;38173;52.850;6.970;2022-11-21T02:05:20;-0.30;99.90
52203;DHT22;38173;52.850;6.970;2022-11-21T02:07:46;-0.30;99.90
52203;DHT22;38173;52.850;6.970;2022-11-21T02:10:12;-0.40;99.90
52203;DHT22;38173;52.850;6.970;2022-11-21T02:12:43;-0.40;99.90
52203;DHT22;38173;52.850;6.970;2022-11-21T02:15:10;-0.50;99.90
52203;DHT22;38173;52.850;6.970;2022-11-21T02:17:36;-0.60;99.90
52203;DHT22;38173;52.850;6.970;2022-11-21T02:20:03;-0.60;99.90
52203;DHT22;38173;52.850;6.970;2022-11-21T02:25:12;-0.70;99.90
52203;DHT22;38173;52.850;6.970;2022-11-21T02:27:38;-0.70;99.90
52203;DHT22;38173;52.850;6.970;2022-11-21T02:30:05;-0.80;99.90
52203;DHT22;38173;52.850;6.970;2022-11-21T02:32:34;-0.80;99.90
52203;DHT22;38173;52.850;6.970;2022-11-21T02:35:00;-0.90;99.90
52203;DHT22;38173;52.850;6.970;2022-11-21T02:37:26;-0.90;99.90
52203;DHT22;38173;52.850;6.970;2022-11-21T02:39:51;-1.00;99.90
52203;DHT22;38173;52.850;6.970;2022-11-21T02:44:54;-1.00;99.90
52203;DHT22;38173;52.850;6.970;2022-11-21T02:47:21;-1.10;99.90
52203;DHT22;38173;52.850;6.970;2022-11-21T02:49:48;-1.10;99.90
52203;DHT22;38173;52.850;6.970;2022-11-21T02:52:15;-1.20;99.90
52203;DHT22;38173;52.850;6.970;2022-11-21T02:54:40;-1.20;99.90
52203;DHT22;38173;52.850;6.970;2022-11-21T02:57:06;-1.20;99.90
52203;DHT22;38173;52.850;6.970;2022-11-21T02:59:31;-1.20;99.90
52203;DHT22;38173;52.850;6.970;2022-11-21T03:02:00;-1.20;99.90
52203;DHT22;38173;52.850;6.970;2022-11-21T03:04:27;-1.20;99.90
52203;DHT22;38173;52.850;6.970;2022-11-21T03:06:53;-1.30;99.90
52203;DHT22;38173;52.850;6.970;2022-11-21T03:09:18;-1.30;99.90
52203;DHT22;38173;52.850;6.970;2022-11-21T03:11:44;-1.30;99.90
52203;DHT22;38173;52.850;6.970;2022-11-21T03:14:10;-1.30;99.90
52203;DHT22;38173;52.850;6.970;2022-11-21T03:16:35;-1.40;99.90
52203;DHT22;38173;52.850;6.970;2022-11-21T03:19:01;-1.40;99.90
52203;DHT22;38173;52.850;6.970;2022-11-21T03:21:26;-1.50;99.90
52203;DHT22;38173;52.850;6.970;2022-11-21T03:23:52;-1.50;99.90
52203;DHT22;38173;52.850;6.970;2022-11-21T03:26:18;-1.50;99.90
52203;DHT22;38173;52.850;6.970;2022-11-21T03:28:43;-1.60;99.90
52203;DHT22;38173;52.850;6.970;2022-11-21T03:31:09;-1.60;99.90
52203;DHT22;38173;52.850;6.970;2022-11-21T03:33:34;-1.60;99.90
52203;DHT22;38173;52.850;6.970;2022-11-21T03:36:01;-1.60;99.90
52203;DHT22;38173;52.850;6.970;2022-11-21T03:38:27;-1.60;99.90
52203;DHT22;38173;52.850;6.970;2022-11-21T03:40:52;-1.60;99.90
52203;DHT22;38173;52.850;6.970;2022-11-21T03:43:18;-1.60;99.90
52203;DHT22;38173;52.850;6.970;2022-11-21T03:45:46;-1.60;99.90
52203;DHT22;38173;52.850;6.970;2022-11-21T03:48:13;-1.60;99.90
52203;DHT22;38173;52.850;6.970;2022-11-21T03:50:41;-1.60;99.90
52203;DHT22;38173;52.850;6.970;2022-11-21T03:53:07;-1.60;99.90
52203;DHT22;38173;52.850;6.970;2022-11-21T03:55:32;-1.60;99.90
52203;DHT22;38173;52.850;6.970;2022-11-21T03:57:58;-1.70;99.90
52203;DHT22;38173;52.850;6.970;2022-11-21T04:00:24;-1.70;99.90
52203;DHT22;38173;52.850;6.970;2022-11-21T04:02:49;-1.70;99.90
52203;DHT22;38173;52.850;6.970;2022-11-21T04:05:15;-1.70;99.90
52203;DHT22;38173;52.850;6.970;2022-11-21T04:07:40;-1.80;99.90
52203;DHT22;38173;52.850;6.970;2022-11-21T04:10:06;-1.80;99.90
52203;DHT22;38173;52.850;6.970;2022-11-21T04:12:32;-1.80;99.90
52203;DHT22;38173;52.850;6.970;2022-11-21T04:14:58;-1.90;99.90
52203;DHT22;38173;52.850;6.970;2022-11-21T04:17:23;-1.90;99.90
52203;DHT22;38173;52.850;6.970;2022-11-21T04:19:49;-1.90;99.90
52203;DHT22;38173;52.850;6.970;2022-11-21T04:22:14;-1.90;99.90
52203;DHT22;38173;52.850;6.970;2022-11-21T04:24:40;-1.90;99.90
52203;DHT22;38173;52.850;6.970;2022-11-21T04:27:06;-1.90;99.90
52203;DHT22;38173;52.850;6.970;2022-11-21T04:29:31;-1.90;99.90
52203;DHT22;38173;52.850;6.970;2022-11-21T04:31:57;-1.90;99.90
52203;DHT22;38173;52.850;6.970;2022-11-21T04:34:22;-1.80;99.90
52203;DHT22;38173;52.850;6.970;2022-11-21T04:36:48;-1.80;99.90
52203;DHT22;38173;52.850;6.970;2022-11-21T04:39:13;-1.80;99.90
52203;DHT22;38173;52.850;6.970;2022-11-21T04:41:39;-1.80;99.90
52203;DHT22;38173;52.850;6.970;2022-11-21T04:44:05;-1.80;99.90
52203;DHT22;38173;52.850;6.970;2022-11-21T04:46:30;-1.80;99.90
52203;DHT22;38173;52.850;6.970;2022-11-21T04:48:56;-1.90;99.90
52203;DHT22;38173;52.850;6.970;2022-11-21T04:51:22;-1.90;99.90
52203;DHT22;38173;52.850;6.970;2022-11-21T04:53:47;-1.90;99.90
52203;DHT22;38173;52.850;6.970;2022-11-21T04:56:13;-1.90;99.90
52203;DHT22;38173;52.850;6.970;2022-11-21T04:58:42;-1.90;99.90
52203;DHT22;38173;52.850;6.970;2022-11-21T05:01:07;-1.90;99.90
52203;DHT22;38173;52.850;6.970;2022-11-21T05:03:33;-2.00;99.90
52203;DHT22;38173;52.850;6.970;2022-11-21T05:05:59;-2.10;99.90
52203;DHT22;38173;52.850;6.970;2022-11-21T05:08:24;-2.10;99.90
52203;DHT22;38173;52.850;6.970;2022-11-21T05:10:50;-2.20;99.90
52203;DHT22;38173;52.850;6.970;2022-11-21T05:13:34;-2.20;99.90
52203;DHT22;38173;52.850;6.970;2022-11-21T05:16:00;-2.20;99.90
52203;DHT22;38173;52.850;6.970;2022-11-21T05:18:26;-2.20;99.90
52203;DHT22;38173;52.850;6.970;2022-11-21T05:20:51;-2.30;99.90
52203;DHT22;38173;52.850;6.970;2022-11-21T05:23:18;-2.30;99.90
52203;DHT22;38173;52.850;6.970;2022-11-21T05:25:43;-2.30;99.90
52203;DHT22;38173;52.850;6.970;2022-11-21T05:28:09;-2.20;99.90
52203;DHT22;38173;52.850;6.970;2022-11-21T05:30:34;-2.20;99.90
52203;DHT22;38173;52.850;6.970;2022-11-21T05:33:01;-2.10;99.90
52203;DHT22;38173;52.850;6.970;2022-11-21T05:35:27;-2.10;99.90
52203;DHT22;38173;52.850;6.970;2022-11-21T05:37:56;-2.00;99.90
52203;DHT22;38173;52.850;6.970;2022-11-21T05:40:22;-2.00;99.90
52203;DHT22;38173;52.850;6.970;2022-11-21T05:42:49;-2.00;99.90
52203;DHT22;38173;52.850;6.970;2022-11-21T05:45:33;-2.00;99.90
52203;DHT22;38173;52.850;6.970;2022-11-21T05:47:59;-2.10;99.90
52203;DHT22;38173;52.850;6.970;2022-11-21T05:50:25;-2.20;99.90
52203;DHT22;38173;52.850;6.970;2022-11-21T05:52:51;-2.30;99.90
52203;DHT22;38173;52.850;6.970;2022-11-21T05:55:17;-2.30;99.90
52203;DHT22;38173;52.850;6.970;2022-11-21T05:57:43;-2.30;99.90
52203;DHT22;38173;52.850;6.970;2022-11-21T06:00:08;-2.30;99.90
52203;DHT22;38173;52.850;6.970;2022-11-21T06:02:34;-2.40;99.90
52203;DHT22;38173;52.850;6.970;2022-11-21T06:05:18;-2.40;99.90
52203;DHT22;38173;52.850;6.970;2022-11-21T06:07:44;-2.40;99.90
52203;DHT22;38173;52.850;6.970;2022-11-21T06:10:09;-2.40;99.90
52203;DHT22;38173;52.850;6.970;2022-11-21T06:12:35;-2.40;99.90
52203;DHT22;38173;52.850;6.970;2022-11-21T06:15:01;-2.50;99.90
52203;DHT22;38173;52.850;6.970;2022-11-21T06:17:27;-2.50;99.90
52203;DHT22;38173;52.850;6.970;2022-11-21T06:19:52;-2.50;99.90
52203;DHT22;38173;52.850;6.970;2022-11-21T06:22:19;-2.40;99.90
52203;DHT22;38173;52.850;6.970;2022-11-21T06:24:45;-2.40;99.90
52203;DHT22;38173;52.850;6.970;2022-11-21T06:27:11;-2.30;99.90
52203;DHT22;38173;52.850;6.970;2022-11-21T06:29:37;-2.30;99.90
52203;DHT22;38173;52.850;6.970;2022-11-21T06:32:02;-2.20;99.90
52203;DHT22;38173;52.850;6.970;2022-11-21T06:34:28;-2.20;99.90
52203;DHT22;38173;52.850;6.970;2022-11-21T06:36:53;-2.20;99.90
52203;DHT22;38173;52.850;6.970;2022-11-21T06:39:20;-2.20;99.90
52203;DHT22;38173;52.850;6.970;2022-11-21T06:44:16;-2.20;99.90
52203;DHT22;38173;52.850;6.970;2022-11-21T06:46:42;-2.20;99.90
52203;DHT22;38173;52.850;6.970;2022-11-21T06:49:07;-2.20;99.90
52203;DHT22;38173;52.850;6.970;2022-11-21T06:51:34;-2.10;99.90
52203;DHT22;38173;52.850;6.970;2022-11-21T06:54:00;-2.00;99.90
52203;DHT22;38173;52.850;6.970;2022-11-21T06:56:26;-2.00;99.90
52203;DHT22;38173;52.850;6.970;2022-11-21T06:58:52;-2.10;99.90
52203;DHT22;38173;52.850;6.970;2022-11-21T07:01:19;-2.00;99.90
52203;DHT22;38173;52.850;6.970;2022-11-21T07:03:46;-2.10;99.90
52203;DHT22;38173;52.850;6.970;2022-11-21T07:06:11;-2.10;99.90
52203;DHT22;38173;52.850;6.970;2022-11-21T07:11:07;-2.20;99.90
52203;DHT22;38173;52.850;6.970;2022-11-21T07:13:33;-2.20;99.90
52203;DHT22;38173;52.850;6.970;2022-11-21T07:16:03;-2.20;99.90
52203;DHT22;38173;52.850;6.970;2022-11-21T07:18:30;-2.30;99.90
52203;DHT22;38173;52.850;6.970;2022-11-21T07:20:59;-2.30;99.90
52203;DHT22;38173;52.850;6.970;2022-11-21T07:23:28;-2.30;99.90
52203;DHT22;38173;52.850;6.970;2022-11-21T07:25:54;-2.30;99.90
52203;DHT22;38173;52.850;6.970;2022-11-21T07:28:19;-2.40;99.90
52203;DHT22;38173;52.850;6.970;2022-11-21T07:30:45;-2.30;99.90
52203;DHT22;38173;52.850;6.970;2022-11-21T07:33:11;-2.30;99.90
52203;DHT22;38173;52.850;6.970;2022-11-21T07:35:36;-2.20;99.90
52203;DHT22;38173;52.850;6.970;2022-11-21T07:38:05;-2.10;99.90
52203;DHT22;38173;52.850;6.970;2022-11-21T07:40:31;-2.10;99.90
52203;DHT22;38173;52.850;6.970;2022-11-21T07:43:03;-2.10;99.90
52203;DHT22;38173;52.850;6.970;2022-11-21T07:45:29;-2.00;99.90
52203;DHT22;38173;52.850;6.970;2022-11-21T07:47:58;-2.00;99.90
52203;DHT22;38173;52.850;6.970;2022-11-21T07:50:24;-2.00;99.90
52203;DHT22;38173;52.850;6.970;2022-11-21T07:52:50;-1.90;99.90
52203;DHT22;38173;52.850;6.970;2022-11-21T07:55:16;-1.80;99.90
52203;DHT22;38173;52.850;6.970;2022-11-21T07:57:41;-1.80;99.90
52203;DHT22;38173;52.850;6.970;2022-11-21T08:00:07;-1.70;99.90
52203;DHT22;38173;52.850;6.970;2022-11-21T08:02:33;-1.70;99.90
52203;DHT22;38173;52.850;6.970;2022-11-21T08:04:59;-1.60;99.90
52203;DHT22;38173;52.850;6.970;2022-11-21T08:07:24;-1.50;99.90
52203;DHT22;38173;52.850;6.970;2022-11-21T08:09:51;-1.40;99.90
52203;DHT22;38173;52.850;6.970;2022-11-21T08:12:16;-1.40;99.90
52203;DHT22;38173;52.850;6.970;2022-11-21T08:14:42;-1.40;99.90
52203;DHT22;38173;52.850;6.970;2022-11-21T08:17:07;-1.30;99.90
52203;DHT22;38173;52.850;6.970;2022-11-21T08:19:33;-1.30;99.90
52203;DHT22;38173;52.850;6.970;2022-11-21T08:22:00;-1.20;99.90
52203;DHT22;38173;52.850;6.970;2022-11-21T08:24:25;-1.20;99.90
52203;DHT22;38173;52.850;6.970;2022-11-21T08:26:51;-1.20;99.90
52203;DHT22;38173;52.850;6.970;2022-11-21T08:29:17;-1.10;99.90
52203;DHT22;38173;52.850;6.970;2022-11-21T08:31:42;-1.00;99.90
52203;DHT22;38173;52.850;6.970;2022-11-21T08:34:08;-1.00;99.90
52203;DHT22;38173;52.850;6.970;2022-11-21T08:36:34;-0.90;99.90
52203;DHT22;38173;52.850;6.970;2022-11-21T08:39:00;-0.90;99.90
52203;DHT22;38173;52.850;6.970;2022-11-21T08:41:26;-0.80;99.90
52203;DHT22;38173;52.850;6.970;2022-11-21T08:44:11;-0.80;99.90
52203;DHT22;38173;52.850;6.970;2022-11-21T08:46:36;-0.70;99.90
52203;DHT22;38173;52.850;6.970;2022-11-21T08:49:02;-0.70;99.90
52203;DHT22;38173;52.850;6.970;2022-11-21T08:51:28;-0.60;99.90
52203;DHT22;38173;52.850;6.970;2022-11-21T08:53:54;-0.50;99.90
52203;DHT22;38173;52.850;6.970;2022-11-21T08:56:19;-0.50;99.90
52203;DHT22;38173;52.850;6.970;2022-11-21T08:58:45;-0.40;99.90
52203;DHT22;38173;52.850;6.970;2022-11-21T09:01:10;-0.40;99.90
52203;DHT22;38173;52.850;6.970;2022-11-21T09:03:36;-0.30;99.90
52203;DHT22;38173;52.850;6.970;2022-11-21T09:06:01;-0.30;99.90
52203;DHT22;38173;52.850;6.970;2022-11-21T09:08:27;-0.20;99.90
52203;DHT22;38173;52.850;6.970;2022-11-21T09:10:54;-0.10;99.90
52203;DHT22;38173;52.850;6.970;2022-11-21T09:13:20;0.00;99.90
52203;DHT22;38173;52.850;6.970;2022-11-21T09:15:45;0.10;99.90
52203;DHT22;38173;52.850;6.970;2022-11-21T09:18:30;0.20;99.90
52203;DHT22;38173;52.850;6.970;2022-11-21T09:20:56;0.20;99.90
52203;DHT22;38173;52.850;6.970;2022-11-21T09:23:21;0.30;99.90
52203;DHT22;38173;52.850;6.970;2022-11-21T09:25:47;0.40;99.90
52203;DHT22;38173;52.850;6.970;2022-11-21T09:28:13;0.50;99.90
52203;DHT22;38173;52.850;6.970;2022-11-21T09:30:39;0.50;99.90
52203;DHT22;38173;52.850;6.970;2022-11-21T09:33:06;0.60;99.90
52203;DHT22;38173;52.850;6.970;2022-11-21T09:35:32;0.80;99.90
52203;DHT22;38173;52.850;6.970;2022-11-21T09:37:57;0.90;99.90
52203;DHT22;38173;52.850;6.970;2022-11-21T09:40:24;0.90;99.90
52203;DHT22;38173;52.850;6.970;2022-11-21T09:48:07;0.90;99.90
52203;DHT22;38173;52.850;6.970;2022-11-21T09:50:35;0.80;99.90
52203;DHT22;38173;52.850;6.970;2022-11-21T09:53:05;0.80;99.90
52203;DHT22;38173;52.850;6.970;2022-11-21T09:57:59;0.80;99.90
52203;DHT22;38173;52.850;6.970;2022-11-21T10:00:26;0.80;99.90
52203;DHT22;38173;52.850;6.970;2022-11-21T10:02:52;0.80;99.90
52203;DHT22;38173;52.850;6.970;2022-11-21T10:05:22;0.80;99.90
52203;DHT22;38173;52.850;6.970;2022-11-21T10:07:51;0.80;99.90
52203;DHT22;38173;52.850;6.970;2022-11-21T10:10:30;0.70;99.90
52203;DHT22;38173;52.850;6.970;2022-11-21T10:23:33;0.70;99.90
52203;DHT22;38173;52.850;6.970;2022-11-21T10:28:51;0.80;99.90
52203;DHT22;38173;52.850;6.970;2022-11-21T10:31:18;0.80;99.90
52203;DHT22;38173;52.850;6.970;2022-11-21T10:33:44;0.80;99.90
52203;DHT22;38173;52.850;6.970;2022-11-21T10:36:22;0.80;99.90
52203;DHT22;38173;52.850;6.970;2022-11-21T10:38:49;0.80;99.90
52203;DHT22;38173;52.850;6.970;2022-11-21T10:46:37;0.90;99.90
52203;DHT22;38173;52.850;6.970;2022-11-21T10:49:03;0.90;99.90
52203;DHT22;38173;52.850;6.970;2022-11-21T10:51:44;0.90;99.90
52203;DHT22;38173;52.850;6.970;2022-11-21T10:54:12;0.90;99.90
52203;DHT22;38173;52.850;6.970;2022-11-21T10:57:17;0.90;99.90
52203;DHT22;38173;52.850;6.970;2022-11-21T10:59:54;0.90;99.90
52203;DHT22;38173;52.850;6.970;2022-11-21T11:02:21;1.00;99.90
52203;DHT22;38173;52.850;6.970;2022-11-21T11:04:47;1.10;99.90
52203;DHT22;38173;52.850;6.970;2022-11-21T11:07:20;1.10;99.90
52203;DHT22;38173;52.850;6.970;2022-11-21T11:09:46;1.10;99.90
52203;DHT22;38173;52.850;6.970;2022-11-21T11:12:28;1.20;99.90
52203;DHT22;38173;52.850;6.970;2022-11-21T11:15:20;1.30;99.90
52203;DHT22;38173;52.850;6.970;2022-11-21T11:18:04;1.40;99.90
52203;DHT22;38173;52.850;6.970;2022-11-21T11:20:35;1.50;99.90
52203;DHT22;38173;52.850;6.970;2022-11-21T11:23:24;1.50;99.90
52203;DHT22;38173;52.850;6.970;2022-11-21T11:25:51;1.60;99.90
52203;DHT22;38173;52.850;6.970;2022-11-21T11:28:17;1.60;99.90
52203;DHT22;38173;52.850;6.970;2022-11-21T11:30:48;1.70;99.90
52203;DHT22;38173;52.850;6.970;2022-11-21T11:33:30;1.70;99.90
52203;DHT22;38173;52.850;6.970;2022-11-21T11:38:31;1.80;99.90
52203;DHT22;38173;52.850;6.970;2022-11-21T11:40:58;1.90;99.90
52203;DHT22;38173;52.850;6.970;2022-11-21T11:46:44;1.90;99.90
52203;DHT22;38173;52.850;6.970;2022-11-21T11:49:44;1.90;99.90
52203;DHT22;38173;52.850;6.970;2022-11-21T11:52:33;1.90;99.90
52203;DHT22;38173;52.850;6.970;2022-11-21T11:55:07;1.90;99.90
52203;DHT22;38173;52.850;6.970;2022-11-21T11:57:38;1.90;99.90
52203;DHT22;38173;52.850;6.970;2022-11-21T12:02:50;1.80;99.90
52203;DHT22;38173;52.850;6.970;2022-11-21T12:05:20;1.90;99.90
52203;DHT22;38173;52.850;6.970;2022-11-21T12:07:50;1.90;99.90
52203;DHT22;38173;52.850;6.970;2022-11-21T12:10:23;1.80;99.90
52203;DHT22;38173;52.850;6.970;2022-11-21T12:12:51;1.90;99.90
52203;DHT22;38173;52.850;6.970;2022-11-21T12:22:57;1.90;99.90
52203;DHT22;38173;52.850;6.970;2022-11-21T12:25:24;1.90;99.90
52203;DHT22;38173;52.850;6.970;2022-11-21T12:27:53;2.00;99.90
52203;DHT22;38173;52.850;6.970;2022-11-21T12:30:26;2.00;99.90
52203;DHT22;38173;52.850;6.970;2022-11-21T12:32:55;2.10;99.90
52203;DHT22;38173;52.850;6.970;2022-11-21T12:45:44;2.20;99.90
52203;DHT22;38173;52.850;6.970;2022-11-21T12:51:35;2.40;99.90
52203;DHT22;38173;52.850;6.970;2022-11-21T12:54:45;2.40;99.90
52203;DHT22;38173;52.850;6.970;2022-11-21T12:57:15;2.50;99.90
52203;DHT22;38173;52.850;6.970;2022-11-21T13:04:58;2.70;99.90
52203;DHT22;38173;52.850;6.970;2022-11-21T13:07:24;2.70;99.90
52203;DHT22;38173;52.850;6.970;2022-11-21T13:09:53;2.80;99.90
52203;DHT22;38173;52.850;6.970;2022-11-21T13:17:50;3.00;99.90
52203;DHT22;38173;52.850;6.970;2022-11-21T13:20:21;3.00;99.90
52203;DHT22;38173;52.850;6.970;2022-11-21T13:22:55;2.90;99.90
52203;DHT22;38173;52.850;6.970;2022-11-21T13:28:29;3.00;99.90
52203;DHT22;38173;52.850;6.970;2022-11-21T13:30:51;3.00;99.90
52203;DHT22;38173;52.850;6.970;2022-11-21T13:36:07;3.00;99.90
52203;DHT22;38173;52.850;6.970;2022-11-21T13:47:02;3.10;99.90
52203;DHT22;38173;52.850;6.970;2022-11-21T13:49:33;3.10;99.90
52203;DHT22;38173;52.850;6.970;2022-11-21T13:52:06;3.10;99.90
52203;DHT22;38173;52.850;6.970;2022-11-21T13:57:30;3.00;99.90
52203;DHT22;38173;52.850;6.970;2022-11-21T14:09:50;2.90;99.90
52203;DHT22;38173;52.850;6.970;2022-11-21T14:12:20;2.90;99.90
52203;DHT22;38173;52.850;6.970;2022-11-21T14:15:20;2.90;99.90
52203;DHT22;38173;52.850;6.970;2022-11-21T14:17:49;2.90;99.90
52203;DHT22;38173;52.850;6.970;2022-11-21T14:20:25;2.90;99.90
52203;DHT22;38173;52.850;6.970;2022-11-21T14:22:53;2.90;99.90
52203;DHT22;38173;52.850;6.970;2022-11-21T14:25:21;2.80;99.90
52203;DHT22;38173;52.850;6.970;2022-11-21T14:27:51;2.80;99.90
52203;DHT22;38173;52.850;6.970;2022-11-21T14:30:34;2.80;99.90
52203;DHT22;38173;52.850;6.970;2022-11-21T14:35:46;2.80;99.90
52203;DHT22;38173;52.850;6.970;2022-11-21T14:38:12;2.70;99.90
52203;DHT22;38173;52.850;6.970;2022-11-21T14:40:38;2.80;99.90
52203;DHT22;38173;52.850;6.970;2022-11-21T14:43:20;2.70;99.90
52203;DHT22;38173;52.850;6.970;2022-11-21T14:45:49;2.70;99.90
52203;DHT22;38173;52.850;6.970;2022-11-21T14:48:15;2.70;99.90
52203;DHT22;38173;52.850;6.970;2022-11-21T14:50:40;2.70;99.90
52203;DHT22;38173;52.850;6.970;2022-11-21T14:53:09;2.70;99.90
52203;DHT22;38173;52.850;6.970;2022-11-21T14:55:35;2.60;99.90
52203;DHT22;38173;52.850;6.970;2022-11-21T14:58:01;2.60;99.90
52203;DHT22;38173;52.850;6.970;2022-11-21T15:00:28;2.60;99.90
52203;DHT22;38173;52.850;6.970;2022-11-21T15:02:55;2.60;99.90
52203;DHT22;38173;52.850;6.970;2022-11-21T15:05:21;2.50;99.90
52203;DHT22;38173;52.850;6.970;2022-11-21T15:07:52;2.50;99.90
52203;DHT22;38173;52.850;6.970;2022-11-21T15:10:20;2.50;99.90
52203;DHT22;38173;52.850;6.970;2022-11-21T15:12:49;2.50;99.90
52203;DHT22;38173;52.850;6.970;2022-11-21T15:18:13;2.50;99.90
52203;DHT22;38173;52.850;6.970;2022-11-21T15:20:40;2.50;99.90
52203;DHT22;38173;52.850;6.970;2022-11-21T15:23:26;2.50;99.90
52203;DHT22;38173;52.850;6.970;2022-11-21T15:25:52;2.50;99.90
52203;DHT22;38173;52.850;6.970;2022-11-21T15:28:18;2.40;99.90
52203;DHT22;38173;52.850;6.970;2022-11-21T15:30:43;2.40;99.90
52203;DHT22;38173;52.850;6.970;2022-11-21T15:33:13;2.40;99.90
52203;DHT22;38173;52.850;6.970;2022-11-21T15:40:53;2.40;99.90
52203;DHT22;38173;52.850;6.970;2022-11-21T15:43:32;2.40;99.90
52203;DHT22;38173;52.850;6.970;2022-11-21T15:46:01;2.40;99.90
52203;DHT22;38173;52.850;6.970;2022-11-21T15:48:27;2.40;99.90
52203;DHT22;38173;52.850;6.970;2022-11-21T15:50:52;2.30;99.90
52203;DHT22;38173;52.850;6.970;2022-11-21T15:53:19;2.30;99.90
52203;DHT22;38173;52.850;6.970;2022-11-21T15:55:44;2.30;99.90
52203;DHT22;38173;52.850;6.970;2022-11-21T15:58:10;2.30;99.90
52203;DHT22;38173;52.850;6.970;2022-11-21T16:00:35;2.30;99.90
52203;DHT22;38173;52.850;6.970;2022-11-21T16:03:01;2.30;99.90
52203;DHT22;38173;52.850;6.970;2022-11-21T16:05:27;2.30;99.90
52203;DHT22;38173;52.850;6.970;2022-11-21T16:07:53;2.30;99.90
52203;DHT22;38173;52.850;6.970;2022-11-21T16:10:18;2.40;99.90
52203;DHT22;38173;52.850;6.970;2022-11-21T16:12:44;2.40;99.90
52203;DHT22;38173;52.850;6.970;2022-11-21T16:15:09;2.40;99.90
52203;DHT22;38173;52.850;6.970;2022-11-21T16:17:35;2.40;99.90
52203;DHT22;38173;52.850;6.970;2022-11-21T16:20:03;2.40;99.90
52203;DHT22;38173;52.850;6.970;2022-11-21T16:22:29;2.40;99.90
52203;DHT22;38173;52.850;6.970;2022-11-21T16:24:55;2.50;99.90
52203;DHT22;38173;52.850;6.970;2022-11-21T16:27:21;2.50;99.90
52203;DHT22;38173;52.850;6.970;2022-11-21T16:29:46;2.50;99.90
52203;DHT22;38173;52.850;6.970;2022-11-21T16:32:12;2.50;99.90
52203;DHT22;38173;52.850;6.970;2022-11-21T16:34:37;2.50;99.90
52203;DHT22;38173;52.850;6.970;2022-11-21T16:37:03;2.50;99.90
52203;DHT22;38173;52.850;6.970;2022-11-21T16:39:28;2.40;99.90
52203;DHT22;38173;52.850;6.970;2022-11-21T16:41:55;2.50;99.90
52203;DHT22;38173;52.850;6.970;2022-11-21T16:44:21;2.50;99.90
52203;DHT22;38173;52.850;6.970;2022-11-21T16:46:46;2.50;99.90
52203;DHT22;38173;52.850;6.970;2022-11-21T16:49:13;2.60;99.90
52203;DHT22;38173;52.850;6.970;2022-11-21T16:51:39;2.60;99.90
52203;DHT22;38173;52.850;6.970;2022-11-21T16:54:05;2.60;99.90
52203;DHT22;38173;52.850;6.970;2022-11-21T16:56:30;2.70;99.90
52203;DHT22;38173;52.850;6.970;2022-11-21T16:58:57;2.70;99.90
52203;DHT22;38173;52.850;6.970;2022-11-21T17:01:24;2.70;99.90
52203;DHT22;38173;52.850;6.970;2022-11-21T17:03:50;2.70;99.90
52203;DHT22;38173;52.850;6.970;2022-11-21T17:06:16;2.70;99.90
52203;DHT22;38173;52.850;6.970;2022-11-21T17:08:42;2.70;99.90
52203;DHT22;38173;52.850;6.970;2022-11-21T17:13:39;2.70;99.90
52203;DHT22;38173;52.850;6.970;2022-11-21T17:16:06;2.60;99.90
52203;DHT22;38173;52.850;6.970;2022-11-21T17:18:31;2.70;99.90
52203;DHT22;38173;52.850;6.970;2022-11-21T17:20:57;2.60;99.90
52203;DHT22;38173;52.850;6.970;2022-11-21T17:23:23;2.60;99.90
52203;DHT22;38173;52.850;6.970;2022-11-21T17:25:48;2.60;99.90
52203;DHT22;38173;52.850;6.970;2022-11-21T17:28:14;2.60;99.90
52203;DHT22;38173;52.850;6.970;2022-11-21T17:30:40;2.60;99.90
52203;DHT22;38173;52.850;6.970;2022-11-21T17:33:08;2.60;99.90
52203;DHT22;38173;52.850;6.970;2022-11-21T17:35:34;2.70;99.90
52203;DHT22;38173;52.850;6.970;2022-11-21T17:38:00;2.60;99.90
52203;DHT22;38173;52.850;6.970;2022-11-21T17:40:26;2.70;99.90
52203;DHT22;38173;52.850;6.970;2022-11-21T17:42:51;2.60;99.90